Terminal Aerodrome Forecast
Issued by NWS

Home | Current Version | Previous Version | Text Only | Print | Product List | Glossary On
Versions: 1 2 3 4 5 6 7 8 9 10 11 12
000
FTPA31 PHFO 221742
TAFHKO
TAF
PHKO 221742Z 2218/2318 04004KT P6SM FEW045
     FM222100 30010KT P6SM FEW045 SCT070
     FM230300 04007KT P6SM SCT045 BKN070
     FM230900 12004KT P6SM FEW045 SCT070=

USA.gov is the U.S. government's official web portal to all federal, state and local government web resources and services.